createdAt,value
2019-02-09T00:01:38.249Z,7.50
2019-02-09T00:04:07.523Z,7.60
2019-02-09T00:06:36.776Z,7.70
2019-02-09T00:09:08.977Z,7.60
2019-02-09T00:11:38.413Z,7.70
2019-02-09T00:14:07.929Z,7.70
2019-02-09T00:16:37.329Z,7.70
2019-02-09T00:19:06.798Z,7.70
2019-02-09T00:21:36.117Z,7.70
2019-02-09T00:24:05.701Z,7.70
2019-02-09T00:26:34.966Z,7.70
2019-02-09T00:29:04.393Z,7.70
2019-02-09T00:31:33.581Z,7.70
2019-02-09T00:34:02.998Z,7.70
2019-02-09T00:36:32.544Z,7.70
2019-02-09T00:39:01.781Z,7.70
2019-02-09T00:41:30.976Z,7.70
2019-02-09T00:44:00.236Z,7.70
2019-02-09T00:46:29.506Z,7.70
2019-02-09T00:48:58.731Z,7.80
2019-02-09T00:51:28.351Z,7.80
2019-02-09T00:53:57.640Z,7.90
2019-02-09T00:56:26.882Z,7.90
2019-02-09T00:58:56.070Z,7.90
2019-02-09T01:01:25.518Z,8.00
2019-02-09T01:03:54.658Z,8.00
2019-02-09T01:06:23.808Z,8.00
2019-02-09T01:08:52.950Z,8.10
2019-02-09T01:11:22.391Z,8.00
2019-02-09T01:13:51.579Z,8.10
2019-02-09T01:16:20.835Z,8.00
2019-02-09T01:18:50.259Z,8.10
2019-02-09T01:21:19.397Z,8.10
2019-02-09T01:23:48.607Z,8.10
2019-02-09T01:26:18.242Z,8.10
2019-02-09T01:28:47.507Z,8.10
2019-02-09T01:31:16.738Z,8.10
2019-02-09T01:33:45.940Z,8.10
2019-02-09T01:36:15.774Z,8.10
2019-02-09T01:38:44.961Z,8.00
2019-02-09T01:41:14.238Z,8.00
2019-02-09T01:43:43.456Z,7.90
2019-02-09T01:46:12.601Z,7.90
2019-02-09T01:48:41.854Z,7.80
2019-02-09T01:51:11.095Z,7.70
2019-02-09T01:53:40.276Z,7.70
2019-02-09T01:56:09.445Z,7.60
2019-02-09T01:58:38.653Z,7.50
2019-02-09T02:01:07.897Z,7.30
2019-02-09T02:03:37.409Z,7.20
2019-02-09T02:06:06.887Z,7.20
2019-02-09T02:08:36.153Z,7.20
2019-02-09T02:11:05.487Z,7.10
2019-02-09T02:13:34.657Z,7.10
2019-02-09T02:16:04.322Z,7.00
2019-02-09T02:18:33.770Z,7.00
2019-02-09T02:21:02.925Z,6.90
2019-02-09T02:23:32.119Z,6.90
2019-02-09T02:26:01.423Z,6.90
2019-02-09T02:28:30.868Z,6.80
2019-02-09T02:31:00.023Z,6.80
2019-02-09T02:33:29.192Z,6.80
2019-02-09T02:35:58.608Z,6.80
2019-02-09T02:38:27.789Z,6.80
2019-02-09T02:40:57.086Z,6.80
2019-02-09T02:43:26.366Z,6.70
2019-02-09T02:45:55.618Z,6.70
2019-02-09T02:48:24.803Z,6.70
2019-02-09T02:50:54.061Z,6.70
2019-02-09T02:53:23.316Z,6.60
2019-02-09T02:55:52.595Z,6.70
2019-02-09T02:58:21.885Z,6.70
2019-02-09T03:00:51.200Z,6.80
2019-02-09T03:03:20.796Z,6.80
2019-02-09T03:05:50.291Z,6.90
2019-02-09T03:08:19.838Z,6.90
2019-02-09T03:10:49.458Z,6.90
2019-02-09T03:13:18.637Z,6.90
2019-02-09T03:15:47.919Z,6.90
2019-02-09T03:18:17.413Z,6.90
2019-02-09T03:20:46.738Z,6.90
2019-02-09T03:23:15.959Z,6.90
2019-02-09T03:25:45.199Z,6.90
2019-02-09T03:28:14.418Z,6.90
2019-02-09T03:30:48.044Z,6.90
2019-02-09T03:33:14.554Z,7.00
2019-02-09T03:35:43.863Z,6.90
2019-02-09T03:38:13.090Z,7.00
2019-02-09T03:40:42.353Z,6.90
2019-02-09T03:43:11.608Z,6.90
2019-02-09T03:45:41.069Z,6.90
2019-02-09T03:48:10.320Z,6.80
2019-02-09T03:50:39.597Z,6.80
2019-02-09T03:53:08.765Z,6.70
2019-02-09T03:55:37.937Z,6.70
2019-02-09T03:58:07.090Z,6.70
2019-02-09T04:00:36.621Z,6.80
2019-02-09T04:03:06.396Z,6.80
2019-02-09T04:05:35.747Z,6.70
2019-02-09T04:08:05.702Z,6.80
2019-02-09T04:10:34.985Z,6.80
2019-02-09T04:13:04.288Z,6.70
2019-02-09T04:15:33.482Z,6.70
2019-02-09T04:18:02.753Z,6.70
2019-02-09T04:20:31.896Z,6.70
2019-02-09T04:23:01.349Z,6.70
2019-02-09T04:25:30.624Z,6.70
2019-02-09T04:27:59.954Z,6.80
2019-02-09T04:30:30.822Z,6.80
2019-02-09T04:33:00.121Z,6.80
2019-02-09T04:35:29.981Z,6.90
2019-02-09T04:37:59.233Z,6.90
2019-02-09T04:40:30.219Z,6.90
2019-02-09T04:42:59.942Z,7.00
2019-02-09T04:45:29.283Z,7.00
2019-02-09T04:47:58.772Z,7.10
2019-02-09T04:50:27.990Z,7.20
2019-02-09T04:52:57.274Z,7.30
2019-02-09T04:55:26.663Z,7.30
2019-02-09T04:57:56.267Z,7.30
2019-02-09T05:00:27.356Z,7.30
2019-02-09T05:02:56.857Z,7.40
2019-02-09T05:05:26.152Z,7.40
2019-02-09T05:07:55.671Z,7.40
2019-02-09T05:10:25.079Z,7.40
2019-02-09T05:12:54.371Z,7.50
2019-02-09T05:15:23.725Z,7.50
2019-02-09T05:17:52.973Z,7.50
2019-02-09T05:20:24.669Z,7.60
2019-02-09T05:22:54.311Z,7.60
2019-02-09T05:25:23.471Z,7.70
2019-02-09T05:27:52.644Z,7.80
2019-02-09T05:30:24.093Z,8.00
2019-02-09T05:32:53.869Z,8.00
2019-02-09T05:35:23.158Z,8.10
2019-02-09T05:37:52.674Z,8.10
2019-02-09T05:40:22.583Z,8.10
2019-02-09T05:42:51.945Z,8.20
2019-02-09T05:45:22.918Z,8.30
2019-02-09T05:47:52.226Z,8.30
2019-02-09T05:50:21.644Z,8.30
2019-02-09T05:52:50.879Z,8.30
2019-02-09T05:55:21.030Z,8.40
2019-02-09T05:57:50.297Z,8.40
2019-02-09T06:00:42.573Z,8.40
2019-02-09T06:03:11.877Z,8.40
2019-02-09T06:05:41.323Z,8.40
2019-02-09T06:08:10.493Z,8.40
2019-02-09T06:10:39.689Z,8.30
2019-02-09T06:13:08.890Z,8.30
2019-02-09T06:15:38.558Z,8.30
2019-02-09T06:18:08.042Z,8.30
2019-02-09T06:20:37.335Z,8.20
2019-02-09T06:23:07.330Z,8.20
2019-02-09T06:25:36.652Z,8.20
2019-02-09T06:28:06.088Z,8.10
2019-02-09T06:30:35.466Z,8.10
2019-02-09T06:33:04.795Z,8.10
2019-02-09T06:35:34.074Z,8.10
2019-02-09T06:38:03.397Z,8.10
2019-02-09T06:40:32.560Z,8.10
2019-02-09T06:43:01.749Z,8.10
2019-02-09T06:45:31.293Z,8.10
2019-02-09T06:48:19.801Z,8.20
2019-02-09T06:50:49.153Z,8.20
2019-02-09T06:53:18.313Z,8.30
2019-02-09T06:55:47.505Z,8.30
2019-02-09T06:58:16.731Z,8.30
2019-02-09T07:00:45.994Z,8.40
2019-02-09T07:03:15.155Z,8.50
2019-02-09T07:05:44.663Z,8.60
2019-02-09T07:08:13.914Z,8.70
2019-02-09T07:10:43.202Z,8.80
2019-02-09T07:13:12.801Z,8.80
2019-02-09T07:15:42.048Z,8.80
2019-02-09T07:18:11.300Z,8.80
2019-02-09T07:20:40.753Z,8.80
2019-02-09T07:23:09.923Z,8.80
2019-02-09T07:25:39.516Z,8.90
2019-02-09T07:28:08.821Z,8.80
2019-02-09T07:30:38.090Z,8.90
2019-02-09T07:33:08.347Z,8.90
2019-02-09T07:35:39.341Z,8.90
2019-02-09T07:38:09.162Z,9.00
2019-02-09T07:40:38.721Z,9.10
2019-02-09T07:43:08.303Z,9.00
2019-02-09T07:45:37.708Z,9.10
2019-02-09T07:48:07.399Z,9.10
2019-02-09T07:50:36.657Z,9.10
2019-02-09T07:53:05.864Z,9.10
2019-02-09T07:55:35.024Z,9.10
2019-02-09T07:58:04.321Z,9.10
2019-02-09T08:00:33.808Z,9.10
2019-02-09T08:03:03.459Z,9.20
2019-02-09T08:05:33.663Z,9.20
2019-02-09T08:08:02.845Z,9.20
2019-02-09T08:10:34.451Z,9.20
2019-02-09T08:13:04.434Z,9.10
2019-02-09T08:15:33.895Z,9.10
2019-02-09T08:18:03.581Z,9.00
2019-02-09T08:20:32.910Z,9.00
2019-02-09T08:23:02.955Z,9.00
2019-02-09T08:25:33.697Z,9.00
2019-02-09T08:28:03.064Z,8.90
2019-02-09T08:30:38.700Z,8.80
2019-02-09T08:33:08.495Z,8.60
2019-02-09T08:35:38.018Z,8.60
2019-02-09T08:38:09.283Z,8.60
2019-02-09T08:40:38.838Z,8.60
2019-02-09T08:43:09.503Z,8.70
2019-02-09T08:45:40.166Z,8.70
2019-02-09T08:48:09.640Z,8.80
2019-02-09T08:50:42.047Z,8.90
2019-02-09T08:53:11.322Z,9.00
2019-02-09T08:55:40.465Z,9.10
2019-02-09T08:58:10.144Z,9.20
2019-02-09T09:00:39.382Z,9.20
2019-02-09T09:03:08.779Z,9.20
2019-02-09T09:05:38.534Z,9.20
2019-02-09T09:08:08.432Z,9.10
2019-02-09T09:10:38.109Z,9.20
2019-02-09T09:13:07.357Z,9.20
2019-02-09T09:15:42.386Z,9.20
2019-02-09T09:18:11.985Z,9.10
2019-02-09T09:20:44.216Z,9.10
2019-02-09T09:23:13.480Z,9.10
2019-02-09T09:25:42.953Z,9.00
2019-02-09T09:28:12.314Z,9.00
2019-02-09T09:30:41.495Z,9.00
2019-02-09T09:33:10.862Z,9.00
2019-02-09T09:35:40.403Z,9.10
2019-02-09T09:38:09.954Z,9.40
2019-02-09T09:40:41.232Z,9.50
2019-02-09T09:43:11.546Z,9.50
2019-02-09T09:45:41.011Z,9.60
2019-02-09T09:48:12.296Z,9.60
2019-02-09T09:50:41.753Z,9.60
2019-02-09T09:53:11.728Z,9.70
2019-02-09T09:55:41.472Z,9.80
2019-02-09T09:58:11.088Z,9.80
2019-02-09T10:00:40.960Z,9.80
2019-02-09T10:03:10.270Z,9.90
2019-02-09T10:05:40.034Z,9.90
2019-02-09T10:08:09.586Z,10.00
2019-02-09T10:10:38.893Z,10.00
2019-02-09T10:13:08.430Z,10.00
2019-02-09T10:15:37.841Z,9.90
2019-02-09T10:18:07.487Z,10.00
2019-02-09T10:20:36.767Z,10.10
2019-02-09T10:23:06.635Z,10.10
2019-02-09T10:25:35.973Z,10.10
2019-02-09T10:28:05.673Z,10.10
2019-02-09T10:30:35.138Z,10.10
2019-02-09T10:33:04.590Z,10.20
2019-02-09T10:35:33.929Z,10.30
2019-02-09T10:38:03.211Z,10.40
2019-02-09T10:40:33.540Z,10.50
2019-02-09T10:43:03.034Z,10.50
2019-02-09T10:45:32.323Z,10.50
2019-02-09T10:48:01.752Z,10.50
2019-02-09T10:50:33.006Z,10.40
2019-02-09T10:53:02.494Z,10.40
2019-02-09T10:55:31.910Z,10.20
2019-02-09T10:58:01.449Z,10.00
2019-02-09T11:00:37.063Z,9.90
2019-02-09T11:03:07.160Z,9.80
2019-02-09T11:05:36.668Z,9.80
2019-02-09T11:08:07.030Z,9.80
2019-02-09T11:10:36.568Z,9.80
2019-02-09T11:13:06.583Z,9.80
2019-02-09T11:15:36.156Z,9.80
2019-02-09T11:18:06.628Z,9.90
2019-02-09T11:20:36.138Z,9.90
2019-02-09T11:23:06.060Z,10.00
2019-02-09T11:25:35.598Z,10.20
2019-02-09T11:28:05.025Z,10.30
2019-02-09T11:30:34.365Z,10.20
2019-02-09T11:33:03.796Z,10.30
2019-02-09T11:35:33.113Z,10.30
2019-02-09T11:38:02.393Z,10.40
2019-02-09T11:40:33.199Z,10.50
2019-02-09T11:43:02.649Z,10.60
2019-02-09T11:45:32.841Z,10.70
2019-02-09T11:48:03.470Z,10.70
2019-02-09T11:50:33.070Z,10.70
2019-02-09T11:53:02.325Z,10.80
2019-02-09T11:55:31.546Z,10.70
2019-02-09T11:58:00.897Z,10.80
2019-02-09T12:00:32.740Z,10.60
2019-02-09T12:03:05.524Z,10.70
2019-02-09T12:05:32.953Z,10.70
2019-02-09T12:08:02.160Z,10.60
2019-02-09T12:10:31.440Z,10.60
2019-02-09T12:13:00.803Z,10.60
2019-02-09T12:15:31.600Z,10.50
2019-02-09T12:18:01.092Z,10.50
2019-02-09T12:20:30.241Z,10.50
2019-02-09T12:22:59.532Z,10.50
2019-02-09T12:25:31.189Z,10.50
2019-02-09T12:28:00.551Z,10.50
2019-02-09T12:30:32.476Z,10.60
2019-02-09T12:33:01.774Z,10.70
2019-02-09T12:35:31.145Z,10.80
2019-02-09T12:38:00.538Z,10.90
2019-02-09T12:40:31.210Z,10.90
2019-02-09T12:43:00.656Z,11.00
2019-02-09T12:45:31.313Z,10.90
2019-02-09T12:48:00.574Z,10.80
2019-02-09T12:50:30.806Z,10.70
2019-02-09T12:53:00.235Z,10.50
2019-02-09T12:55:29.499Z,10.50
2019-02-09T12:57:58.774Z,10.40
2019-02-09T13:00:29.946Z,10.40
2019-02-09T13:03:00.985Z,10.30
2019-02-09T13:05:30.355Z,10.30
2019-02-09T13:07:59.717Z,10.30
2019-02-09T13:10:28.926Z,9.90
2019-02-09T13:12:58.208Z,9.10
2019-02-09T13:15:28.862Z,8.80
2019-02-09T13:17:58.211Z,8.50
2019-02-09T13:20:28.015Z,8.00
2019-02-09T13:22:57.369Z,7.50
2019-02-09T13:25:27.006Z,7.40
2019-02-09T13:27:56.461Z,7.60
2019-02-09T13:30:28.275Z,7.60
2019-02-09T13:32:58.016Z,7.60
2019-02-09T13:35:27.741Z,7.70
2019-02-09T13:37:57.084Z,7.70
2019-02-09T13:40:26.527Z,7.80
2019-02-09T13:42:55.956Z,7.80
2019-02-09T13:45:27.874Z,7.80
2019-02-09T13:47:57.340Z,7.60
2019-02-09T13:50:26.907Z,7.60
2019-02-09T13:52:56.275Z,7.50
2019-02-09T13:55:25.918Z,7.40
2019-02-09T13:57:55.383Z,7.30
2019-02-09T14:00:25.277Z,7.50
2019-02-09T14:02:55.237Z,7.70
2019-02-09T14:05:24.763Z,7.90
2019-02-09T14:07:54.176Z,7.90
2019-02-09T14:10:23.525Z,8.00
2019-02-09T14:12:52.783Z,8.20
2019-02-09T14:15:24.209Z,8.20
2019-02-09T14:17:53.418Z,8.20
2019-02-09T14:20:22.937Z,8.20
2019-02-09T14:22:52.377Z,8.20
2019-02-09T14:25:22.060Z,8.20
2019-02-09T14:27:53.892Z,8.20
2019-02-09T14:30:24.632Z,8.30
2019-02-09T14:32:54.070Z,8.40
2019-02-09T14:35:24.128Z,8.40
2019-02-09T14:37:54.172Z,8.50
2019-02-09T14:40:28.701Z,8.60
2019-02-09T14:42:57.944Z,8.80
2019-02-09T14:45:30.277Z,9.10
2019-02-09T14:47:59.654Z,9.00
2019-02-09T14:50:28.993Z,9.10
2019-02-09T14:52:58.199Z,9.20
2019-02-09T14:55:29.589Z,9.40
2019-02-09T14:57:58.873Z,9.40
2019-02-09T15:00:30.748Z,9.50
2019-02-09T15:02:59.950Z,9.60
2019-02-09T15:05:29.345Z,9.60
2019-02-09T15:07:58.634Z,9.70
2019-02-09T15:10:27.952Z,9.60
2019-02-09T15:12:57.269Z,9.60
2019-02-09T15:15:31.967Z,9.60
2019-02-09T15:18:01.299Z,9.60
2019-02-09T15:20:33.228Z,9.50
2019-02-09T15:23:02.561Z,9.50
2019-02-09T15:25:32.068Z,9.60
2019-02-09T15:28:01.359Z,9.60
2019-02-09T15:30:31.232Z,9.60
2019-02-09T15:33:00.548Z,9.70
2019-02-09T15:35:29.917Z,9.70
2019-02-09T15:37:59.198Z,9.70
2019-02-09T15:40:28.459Z,9.70
2019-02-09T15:42:58.011Z,9.70
2019-02-09T15:45:27.167Z,9.70
2019-02-09T15:47:56.689Z,9.70
2019-02-09T15:50:26.042Z,9.60
2019-02-09T15:52:55.256Z,9.60
2019-02-09T15:55:24.786Z,9.50
2019-02-09T15:57:54.568Z,9.50
2019-02-09T16:00:25.760Z,9.40
2019-02-09T16:02:56.134Z,9.40
2019-02-09T16:05:25.981Z,9.50
2019-02-09T16:07:55.537Z,9.50
2019-02-09T16:10:26.245Z,9.50
2019-02-09T16:12:55.648Z,9.50
2019-02-09T16:15:26.152Z,9.40
2019-02-09T16:17:55.454Z,9.40
2019-02-09T16:20:25.305Z,9.40
2019-02-09T16:22:55.000Z,9.40
2019-02-09T16:25:24.165Z,9.40
2019-02-09T16:27:53.595Z,9.50
2019-02-09T16:30:24.069Z,9.40
2019-02-09T16:32:53.748Z,9.40
2019-02-09T16:35:23.486Z,9.30
2019-02-09T16:37:52.845Z,9.40
2019-02-09T16:40:23.909Z,9.50
2019-02-09T16:42:53.217Z,9.50
2019-02-09T16:45:24.653Z,9.50
2019-02-09T16:47:53.836Z,9.60
2019-02-09T16:50:23.423Z,9.50
2019-02-09T16:52:52.625Z,9.60
2019-02-09T16:55:22.013Z,9.60
2019-02-09T16:57:52.042Z,9.50
2019-02-09T17:00:27.579Z,9.50
2019-02-09T17:02:56.865Z,9.50
2019-02-09T17:05:26.220Z,9.40
2019-02-09T17:07:55.763Z,9.30
2019-02-09T17:10:25.277Z,9.30
2019-02-09T17:12:54.548Z,9.40
2019-02-09T17:15:25.055Z,9.10
2019-02-09T17:17:54.540Z,9.00
2019-02-09T17:20:24.277Z,9.00
2019-02-09T17:22:53.521Z,9.00
2019-02-09T17:25:22.882Z,9.00
2019-02-09T17:27:52.183Z,9.10
2019-02-09T17:30:23.763Z,9.00
2019-02-09T17:32:53.417Z,9.00
2019-02-09T17:35:23.120Z,9.00
2019-02-09T17:37:52.416Z,8.90
2019-02-09T17:40:41.958Z,8.90
2019-02-09T17:43:11.440Z,8.80
2019-02-09T17:45:55.997Z,8.80
2019-02-09T17:48:26.193Z,8.70
2019-02-09T17:50:55.367Z,8.70
2019-02-09T17:53:24.643Z,8.70
2019-02-09T17:55:54.011Z,8.70
2019-02-09T17:58:23.406Z,8.60
2019-02-09T18:00:56.868Z,8.60
2019-02-09T18:03:26.044Z,8.60
2019-02-09T18:05:55.623Z,8.70
2019-02-09T18:08:25.230Z,8.50
2019-02-09T18:10:54.538Z,8.60
2019-02-09T18:13:23.844Z,8.60
2019-02-09T18:15:53.138Z,8.50
2019-02-09T18:18:22.596Z,8.60
2019-02-09T18:20:51.894Z,8.60
2019-02-09T18:23:21.246Z,8.60
2019-02-09T18:25:50.817Z,8.70
2019-02-09T18:28:20.005Z,8.70
2019-02-09T18:30:49.330Z,8.60
2019-02-09T18:33:19.180Z,8.60
2019-02-09T18:35:48.706Z,8.60
2019-02-09T18:38:17.982Z,8.60
2019-02-09T18:40:47.542Z,8.50
2019-02-09T18:43:17.164Z,8.50
2019-02-09T18:45:46.500Z,8.50
2019-02-09T18:48:15.794Z,8.50
2019-02-09T18:50:44.993Z,8.50
2019-02-09T18:53:14.227Z,8.50
2019-02-09T18:55:43.762Z,8.40
2019-02-09T18:58:13.265Z,8.50
2019-02-09T19:00:42.782Z,8.40
2019-02-09T19:03:12.240Z,8.30
2019-02-09T19:05:41.795Z,8.20
2019-02-09T19:08:11.109Z,8.10
2019-02-09T19:10:40.436Z,8.00
2019-02-09T19:13:09.784Z,7.90
2019-02-09T19:15:39.032Z,8.00
2019-02-09T19:18:08.762Z,8.00
2019-02-09T19:20:40.748Z,8.00
2019-02-09T19:23:10.383Z,8.00
2019-02-09T19:25:40.020Z,7.90
2019-02-09T19:28:09.787Z,8.00
2019-02-09T19:30:39.336Z,8.00
2019-02-09T19:33:08.723Z,8.00
2019-02-09T19:35:38.181Z,8.00
2019-02-09T19:38:07.759Z,8.00
2019-02-09T19:40:37.065Z,7.90
2019-02-09T19:43:07.063Z,8.00
2019-02-09T19:45:36.773Z,7.90
2019-02-09T19:48:07.178Z,7.90
2019-02-09T19:50:36.503Z,7.90
2019-02-09T19:53:05.918Z,8.00
2019-02-09T19:55:35.710Z,8.00
2019-02-09T19:58:05.565Z,8.00
2019-02-09T20:00:37.143Z,7.90
2019-02-09T20:03:07.524Z,7.90
2019-02-09T20:05:38.125Z,7.90
2019-02-09T20:08:08.244Z,7.90
2019-02-09T20:10:39.235Z,7.90
2019-02-09T20:13:09.474Z,8.00
2019-02-09T20:15:38.697Z,8.10
2019-02-09T20:18:08.433Z,8.00
2019-02-09T20:20:37.782Z,7.90
2019-02-09T20:23:07.560Z,8.00
2019-02-09T20:25:37.801Z,8.00
2019-02-09T20:28:07.372Z,8.00
2019-02-09T20:30:38.040Z,8.00
2019-02-09T20:33:10.422Z,7.90
2019-02-09T20:35:40.023Z,7.80
2019-02-09T20:38:09.900Z,7.70
2019-02-09T20:40:44.862Z,7.60
2019-02-09T20:43:15.810Z,7.70
2019-02-09T20:45:45.218Z,7.80
2019-02-09T20:48:14.521Z,7.80
2019-02-09T20:50:44.635Z,7.80
2019-02-09T20:53:14.122Z,7.80
2019-02-09T20:55:43.558Z,7.80
2019-02-09T20:58:14.219Z,7.80
2019-02-09T21:00:43.599Z,7.80
2019-02-09T21:03:12.942Z,7.80
2019-02-09T21:05:42.650Z,7.80
2019-02-09T21:08:11.934Z,7.80
2019-02-09T21:10:41.473Z,7.80
2019-02-09T21:13:11.010Z,7.90
2019-02-09T21:15:40.784Z,7.90
2019-02-09T21:18:11.267Z,8.00
2019-02-09T21:20:40.751Z,8.00
2019-02-09T21:23:10.073Z,8.00
2019-02-09T21:25:41.742Z,8.00
2019-02-09T21:28:11.053Z,8.10
2019-02-09T21:30:40.626Z,8.10
2019-02-09T21:33:10.538Z,8.10
2019-02-09T21:35:44.216Z,8.10
2019-02-09T21:38:11.325Z,8.00
2019-02-09T21:40:40.628Z,8.00
2019-02-09T21:43:10.509Z,8.00
2019-02-09T21:45:44.827Z,8.00
2019-02-09T21:48:11.039Z,8.00
2019-02-09T21:50:42.543Z,8.00
2019-02-09T21:53:12.494Z,8.00
2019-02-09T21:55:41.881Z,8.00
2019-02-09T21:58:14.669Z,8.10
2019-02-09T22:00:44.886Z,8.10
2019-02-09T22:03:14.393Z,8.10
2019-02-09T22:05:51.438Z,8.10
2019-02-09T22:08:19.661Z,8.20
2019-02-09T22:10:47.277Z,8.20
2019-02-09T22:13:16.637Z,8.20
2019-02-09T22:15:45.867Z,8.10
2019-02-09T22:18:15.229Z,8.10
2019-02-09T22:20:52.336Z,8.20
2019-02-09T22:23:15.643Z,8.20
2019-02-09T22:25:44.840Z,8.30
2019-02-09T22:28:14.283Z,8.30
2019-02-09T22:30:43.986Z,8.30
2019-02-09T22:33:13.265Z,8.30
2019-02-09T22:35:42.537Z,8.30
2019-02-09T22:38:11.803Z,8.30
2019-02-09T22:40:41.281Z,8.30
2019-02-09T22:43:11.761Z,8.30
2019-02-09T22:45:41.251Z,8.30
2019-02-09T22:48:11.046Z,8.30
2019-02-09T22:50:44.877Z,8.40
2019-02-09T22:53:14.295Z,8.40
2019-02-09T22:55:43.758Z,8.40
2019-02-09T22:58:13.101Z,8.40
2019-02-09T23:01:16.764Z,8.30
2019-02-09T23:03:56.382Z,8.40
2019-02-09T23:06:54.508Z,8.50
2019-02-09T23:09:26.169Z,8.50
2019-02-09T23:11:55.825Z,8.40
2019-02-09T23:14:25.101Z,8.30
2019-02-09T23:16:54.453Z,8.30
2019-02-09T23:19:23.703Z,8.30
2019-02-09T23:21:53.663Z,8.20
2019-02-09T23:24:22.922Z,8.10
2019-02-09T23:26:52.481Z,8.00
2019-02-09T23:29:21.845Z,7.90
2019-02-09T23:31:51.142Z,7.80
2019-02-09T23:34:20.363Z,7.70
2019-02-09T23:36:49.846Z,7.60
2019-02-09T23:39:19.381Z,7.60
2019-02-09T23:41:48.580Z,7.70
2019-02-09T23:44:17.813Z,7.60
2019-02-09T23:46:47.343Z,7.60
2019-02-09T23:49:16.662Z,7.60
2019-02-09T23:51:45.903Z,7.50
2019-02-09T23:54:15.137Z,7.40
2019-02-09T23:56:44.674Z,7.40
2019-02-09T23:59:13.962Z,7.30
